Madison Heights, Michigan
Current Conditions -  °F | °C
As of 6:35 AM on Tuesday 21 Oct 2014 (Local Time) from KVLL Reporting Station
Haze Haze  
Wind Chill: 45°   Ceiling: 1900
Heat Index: 48°   Visibility: 5mi
Dew Point: 45°   Wind: 8mph
Humidity: 88%   Direction: 300°WNW
Pressure: 29.93"   Gusts: NA
Location:  42.52°N, 83.11°W
Report Text: KVLL 211035Z AUTO 30007KT 5SM BR SCT006 BKN019 OVC023 09/07 A2993 RMK AO2 T00910072
Loading
Personal Weather Stations






























Interactive Weather Map
Tropical Storm Tracking
New forecast layout! Learn more

10-Day Weather Forecast

Advertisements
Track Severe Weather on mobile